WetterOnline ( https://www.wetteronline.de )

Wetter aktuell Delligsen

Aktuelles Wetter: Alfeld (148m)

6-stündlich | Neueste Meldungen
Ortszeit Temperatur Wetter
Mo, 24.06. 14:00 26.7° C leicht bewölkt
Mo, 24.06. 8:00 17.8° C leicht bewölkt
Mo, 24.06. 2:00 14.7° C wolkig
So, 23.06. 20:00 24.7° C fast wolkenlos
So, 23.06. 14:00 24.5° C wolkenlos
So, 23.06. 8:00 16.3° C wolkenlos
So, 23.06. 2:00 17.2° C wolkig
Sa, 22.06. 20:00 22.3° C wolkig
Ortszeit Temperatur Wetter
Mo, 24.06. 15:00 27.1° C fast wolkenlos
Mo, 24.06. 14:50 27.1° C fast wolkenlos
Mo, 24.06. 14:40 27.5° C fast wolkenlos
Mo, 24.06. 14:30 27.3° C wolkenlos
Mo, 24.06. 14:20 27.3° C wolkenlos
Mo, 24.06. 14:10 27.0° C wolkenlos
Mo, 24.06. 14:00 26.7° C leicht bewölkt
Mo, 24.06. 13:30 26.5° C fast wolkenlos
Mo, 24.06. 13:00 25.8° C leicht bewölkt
Mo, 24.06. 12:30 25.9° C wolkig
Mo, 24.06. 12:00 26.1° C leicht bewölkt
Ortszeit Relative Feuchte Sichtweite
Mo, 24.06. 14:00 39% 45 km
Mo, 24.06. 8:00 74% 29 km
Mo, 24.06. 2:00 81% 60 km
So, 23.06. 20:00 39% 55 km
So, 23.06. 14:00 41% >70 km
So, 23.06. 8:00 78% 45 km
So, 23.06. 2:00 70% 60 km
Sa, 22.06. 20:00 54% 50 km
Ortszeit Relative Feuchte Sichtweite
Mo, 24.06. 15:00 42% >70 km
Mo, 24.06. 14:50 42% -
Mo, 24.06. 14:40 41% -
Mo, 24.06. 14:30 39% 30 km
Mo, 24.06. 14:20 39% -
Mo, 24.06. 14:10 45% -
Mo, 24.06. 14:00 39% 45 km
Mo, 24.06. 13:30 37% 30 km
Mo, 24.06. 13:00 43% 40 km
Mo, 24.06. 12:30 43% 50 km
Mo, 24.06. 12:00 45% 45 km
Ortszeit Niederschlagsmenge Niederschlagsart
Mo, 24.06. 14:00 0.0 l/m2 in 6 Std. -
Mo, 24.06. 8:00 0.0 l/m2 in 12 Std. -
Mo, 24.06. 2:00 0.0 l/m2 in 6 Std. -
So, 23.06. 20:00 0.0 l/m2 in 12 Std. -
So, 23.06. 14:00 0.0 l/m2 in 6 Std. -
So, 23.06. 8:00 0.0 l/m2 in 12 Std. -
So, 23.06. 2:00 0.0 l/m2 in 6 Std. -
Sa, 22.06. 20:00 0.0 l/m2 in 12 Std. -
Ortszeit Niederschlagsmenge Niederschlagsart
Mo, 24.06. 15:00 0.0 l/m2 in 1 Std. -
Mo, 24.06. 14:50 keine Meldung -
Mo, 24.06. 14:40 keine Meldung -
Mo, 24.06. 14:30 0.0 l/m2 in 1 Std. -
Mo, 24.06. 14:20 keine Meldung -
Mo, 24.06. 14:10 keine Meldung -
Mo, 24.06. 14:00 0.0 l/m2 in 1 Std. -
Mo, 24.06. 13:30 0.0 l/m2 in 1 Std. -
Mo, 24.06. 13:00 0.0 l/m2 in 1 Std. -
Mo, 24.06. 12:30 0.0 l/m2 in 1 Std. -
Mo, 24.06. 12:00 0.0 l/m2 in 1 Std. -
Ortszeit Stärke Spitze Richtung
km/h Bft. km/h Grad Sektor
Mo, 24.06. 14:00 14 3 29 100° O
Mo, 24.06. 8:00 4 1 7 100° O
Mo, 24.06. 2:00 2 1 20 120° SO
So, 23.06. 20:00 7 2 36 120° SO
So, 23.06. 14:00 15 3 31 110° O
So, 23.06. 8:00 7 2 14 340° N
So, 23.06. 2:00 6 1 19 10° N
Sa, 22.06. 20:00 7 2 32 70° O
Ortszeit Stärke Spitze Richtung
km/h Bft. km/h Grad Sektor
Mo, 24.06. 15:00 14 3 25 150° SO
Mo, 24.06. 14:50 14 3 - 150° SO
Mo, 24.06. 14:40 13 3 - 130° SO
Mo, 24.06. 14:30 13 3 24 130° SO
Mo, 24.06. 14:20 13 3 - 130° SO
Mo, 24.06. 14:10 14 3 - 120° SO
Mo, 24.06. 14:00 14 3 25 100° O
Mo, 24.06. 13:30 15 3 24 130° SO
Mo, 24.06. 13:00 13 3 28 120° SO
Mo, 24.06. 12:30 14 3 25 130° SO
Mo, 24.06. 12:00 13 3 24 140° SO
Ortszeit Untergrenze Bedeckung Gattung
total tief tief mittel hoch
Mo, 24.06. 14:00 9000 m 3/8 0/8 - - -
Mo, 24.06. 8:00 10500 m 7/8 0/8 - - -
Mo, 24.06. 2:00 9000 m 8/8 0/8 - - -
So, 23.06. 20:00 10500 m 2/8 0/8 - - -
So, 23.06. 14:00 - 0/8 0/8 - - -
So, 23.06. 8:00 - 0/8 0/8 - - -
So, 23.06. 2:00 9000 m 7/8 0/8 - - -
Sa, 22.06. 20:00 1800 m 6/8 2/8 - - -
Ortszeit Bedeckungsgrad in Achtel und Wolkenuntergrenze
Mo, 24.06. 15:00 1(12000m)
Mo, 24.06. 14:50 1(12000m)
Mo, 24.06. 14:40 1(12000m)
Mo, 24.06. 14:30 keine Wolken
Mo, 24.06. 14:20 keine Wolken
Mo, 24.06. 14:10 keine Wolken
Mo, 24.06. 14:00 2(9000m) 3(10500m)
Mo, 24.06. 13:30 2(9000m) 5(10500m)
Mo, 24.06. 13:00 3(9000m) 4(9000m)
Mo, 24.06. 12:30 3(9000m) 7(9000m)
Mo, 24.06. 12:00 3(10500m) 5(10500m)
Ortszeit Luftdruck NN (hPa) Tendenz (hPa in 3 Std.)
Mo, 24.06. 14:00 1021 - 0,7
Mo, 24.06. 8:00 1023 + 0,8
Mo, 24.06. 2:00 1023 + 1,1
So, 23.06. 20:00 1020 + 0,1
So, 23.06. 14:00 1021 - 0,5
So, 23.06. 8:00 1022 + 0,3
So, 23.06. 2:00 1021 + 0,5
Sa, 22.06. 20:00 1020 - 0,5
Ortszeit Luftdruck NN (hPa) Tendenz (hPa in 3 Std.)
Mo, 24.06. 15:00 1021 - 0,6
Mo, 24.06. 14:50 1021 keine Meldung
Mo, 24.06. 14:40 1021 keine Meldung
Mo, 24.06. 14:30 1021 - 0,7
Mo, 24.06. 14:20 1021 keine Meldung
Mo, 24.06. 14:10 1021 keine Meldung
Mo, 24.06. 14:00 1021 - 0,7
Mo, 24.06. 13:30 1022 - 0,7
Mo, 24.06. 13:00 1022 - 0,5
Mo, 24.06. 12:30 1022 - 0,6
Mo, 24.06. 12:00 1022 - 0,6
Ortszeit Schneehöhe (cm)
Mo, 24.06. 14:00 -
Mo, 24.06. 8:00 -
Mo, 24.06. 2:00 -
So, 23.06. 20:00 -
So, 23.06. 14:00 -
So, 23.06. 8:00 -
So, 23.06. 2:00 -
Sa, 22.06. 20:00 -
Ortszeit Schneehöhe (cm)
Mo, 24.06. 15:00 -
Mo, 24.06. 14:50 -
Mo, 24.06. 14:40 -
Mo, 24.06. 14:30 -
Mo, 24.06. 14:20 -
Mo, 24.06. 14:10 -
Mo, 24.06. 14:00 -
Mo, 24.06. 13:30 -
Mo, 24.06. 13:00 -
Mo, 24.06. 12:30 -
Mo, 24.06. 12:00 -
Link zu dieser Seite / Seite empfehlen

Das Wetter in ...